Time;durP1;ratioP1;P1;durP2;ratioP2;P2;SDS_P1;SDS_P2;PMS_P1;PMS_P2;Temp;Humidity;BMP_temperature;BMP_pressure;BME280_temperature;BME280_humidity;BME280_pressure;Samples;Min_cycle;Max_cycle;Signal;HPM_P1;HPM_P2
2022/04/20 00:00:43;;;;;;;0.10;0.10;;;19.90;99.90;;;;;;5031459;28;20205;-75
2022/04/20 00:03:15;;;;;;;1.25;0.20;;;20.00;99.90;;;;;;5027146;28;20210;-75
2022/04/20 00:05:46;;;;;;;1.30;0.30;;;20.10;99.90;;;;;;5027842;28;20198;-74
2022/04/20 00:08:17;;;;;;;0.17;0.17;;;20.20;99.90;;;;;;5034923;28;20195;-74
2022/04/20 00:10:48;;;;;;;0.30;0.30;;;20.20;99.90;;;;;;5026198;28;20194;-76
2022/04/20 00:13:18;;;;;;;1.73;0.75;;;20.30;99.90;;;;;;5036250;28;20204;-79
2022/04/20 00:15:49;;;;;;;0.85;0.22;;;20.40;99.90;;;;;;5035861;28;20190;-74
2022/04/20 00:18:22;;;;;;;0.20;0.20;;;20.60;99.90;;;;;;5027734;28;20218;-74
2022/04/20 00:20:52;;;;;;;1.20;0.20;;;20.60;99.90;;;;;;5028087;28;20702;-74
2022/04/20 00:23:23;;;;;;;0.10;0.10;;;20.70;99.90;;;;;;5031552;28;20249;-75
2022/04/20 00:25:57;;;;;;;0.20;0.20;;;20.80;99.90;;;;;;5032436;28;20198;-75
2022/04/20 00:28:28;;;;;;;0.90;0.30;;;20.90;99.90;;;;;;5032231;28;20241;-74
2022/04/20 00:30:58;;;;;;;0.10;0.10;;;21.00;99.90;;;;;;5034785;28;20202;-76
2022/04/20 00:33:31;;;;;;;0.30;0.30;;;21.00;99.90;;;;;;5035714;28;20191;-75
2022/04/20 00:36:02;;;;;;;0.30;0.30;;;21.00;99.90;;;;;;5034729;28;20287;-80
2022/04/20 00:38:33;;;;;;;0.20;0.20;;;21.10;99.90;;;;;;5035151;28;20201;-74
2022/04/20 00:41:04;;;;;;;0.20;0.17;;;21.20;99.90;;;;;;5033898;28;20202;-78
2022/04/20 00:43:34;;;;;;;0.20;0.20;;;21.10;99.90;;;;;;5027919;28;20218;-74
2022/04/20 00:46:06;;;;;;;0.85;0.30;;;21.20;99.90;;;;;;5028249;28;20202;-79
2022/04/20 00:48:40;;;;;;;0.30;0.30;;;21.30;99.90;;;;;;5031718;28;20253;-74
2022/04/20 00:51:10;;;;;;;0.20;0.10;;;21.50;99.90;;;;;;5031521;28;20208;-76
2022/04/20 00:53:41;;;;;;;1.17;0.30;;;21.50;99.90;;;;;;5032934;28;20687;-76
2022/04/20 00:56:12;;;;;;;0.43;0.25;;;21.50;99.90;;;;;;5031758;28;20680;-77
2022/04/20 00:58:44;;;;;;;0.22;0.17;;;21.60;99.90;;;;;;5032568;28;21273;-76
2022/04/20 01:01:15;;;;;;;0.25;0.25;;;21.60;99.90;;;;;;5028887;28;20202;-75
2022/04/20 01:03:49;;;;;;;0.30;0.10;;;21.80;99.90;;;;;;5032931;28;20221;-74
2022/04/20 01:06:21;;;;;;;0.20;0.20;;;21.90;99.90;;;;;;5030874;28;20202;-77
2022/04/20 01:08:52;;;;;;;0.98;0.20;;;22.00;99.90;;;;;;5031651;28;20194;-76
2022/04/20 01:11:23;;;;;;;3.55;0.70;;;22.00;99.90;;;;;;5032886;28;20198;-74
2022/04/20 01:13:53;;;;;;;80.32;43.42;;;22.10;99.90;;;;;;5029606;28;20277;-74
2022/04/20 01:16:24;;;;;;;25.30;15.25;;;22.20;99.90;;;;;;5024573;28;20220;-76
2022/04/20 01:18:57;;;;;;;3.78;2.63;;;22.20;99.90;;;;;;5028372;28;21934;-77
2022/04/20 01:21:30;;;;;;;2.70;1.85;;;22.30;99.90;;;;;;5027930;28;20198;-77
2022/04/20 01:24:00;;;;;;;0.80;0.80;;;22.40;99.90;;;;;;5031054;28;20723;-77
2022/04/20 01:26:32;;;;;;;1.88;0.32;;;22.50;99.90;;;;;;5029792;28;20585;-78
2022/04/20 01:29:05;;;;;;;0.55;0.50;;;22.60;99.90;;;;;;5030051;28;20205;-74
2022/04/20 01:31:35;;;;;;;0.20;0.20;;;22.50;99.90;;;;;;5029656;28;20213;-75
2022/04/20 01:34:06;;;;;;;0.40;0.30;;;22.60;99.90;;;;;;5030542;28;20203;-76
2022/04/20 01:36:38;;;;;;;0.10;0.10;;;22.60;99.90;;;;;;5028648;28;20194;-76
2022/04/20 01:39:09;;;;;;;0.38;0.10;;;22.60;99.90;;;;;;5027762;28;20217;-78
2022/04/20 01:41:40;;;;;;;0.10;0.10;;;22.60;99.90;;;;;;5029964;28;20206;-76
2022/04/20 01:44:11;;;;;;;0.10;0.10;;;22.60;99.90;;;;;;5031037;28;20210;-75
2022/04/20 01:46:42;;;;;;;0.47;0.47;;;22.80;99.90;;;;;;5030429;28;20673;-74
2022/04/20 01:51:54;;;;;;;1.40;0.10;;;23.00;99.90;;;;;;5005010;28;20225;-72
2022/04/20 01:54:25;;;;;;;0.70;0.47;;;23.10;99.90;;;;;;5002946;28;20214;-73
2022/04/20 01:56:56;;;;;;;0.73;0.30;;;23.20;99.90;;;;;;5011148;28;20210;-72
2022/04/20 01:59:26;;;;;;;0.55;0.08;;;23.30;99.90;;;;;;5005879;28;20253;-76
2022/04/20 02:04:44;;;;;;;1.67;0.30;;;23.20;99.90;;;;;;5011915;28;20218;-70
2022/04/20 02:07:16;;;;;;;2.45;0.70;;;23.20;99.90;;;;;;4999476;28;20210;-77
2022/04/20 02:09:47;;;;;;;0.82;0.43;;;23.20;99.90;;;;;;5010420;28;20664;-75
2022/04/20 02:12:17;;;;;;;0.70;0.30;;;23.30;99.90;;;;;;5013267;28;20213;-73
2022/04/20 02:14:48;;;;;;;0.45;0.45;;;23.40;99.90;;;;;;5012941;28;20562;-74
2022/04/20 02:17:19;;;;;;;0.13;0.13;;;23.40;99.90;;;;;;5009957;28;20543;-72
2022/04/20 02:19:50;;;;;;;0.20;0.10;;;23.50;99.90;;;;;;5015002;28;20191;-75
2022/04/20 02:22:22;;;;;;;0.22;0.20;;;23.50;99.90;;;;;;5008889;28;20296;-72
2022/04/20 02:24:53;;;;;;;0.20;0.20;;;23.30;99.90;;;;;;5010641;28;20686;-75
2022/04/20 02:27:23;;;;;;;0.30;0.20;;;23.30;99.90;;;;;;5010986;28;20202;-75
2022/04/20 02:29:54;;;;;;;0.10;0.10;;;23.30;99.90;;;;;;5007689;28;20206;-71
2022/04/20 02:32:25;;;;;;;1.13;0.20;;;23.30;99.90;;;;;;5007576;28;20202;-71
2022/04/20 02:34:55;;;;;;;0.40;0.40;;;23.40;99.90;;;;;;5009832;28;20199;-70
2022/04/20 02:37:29;;;;;;;0.63;0.10;;;23.50;99.90;;;;;;5008394;28;20249;-69
2022/04/20 02:40:00;;;;;;;0.10;0.10;;;23.60;99.90;;;;;;5013046;28;20277;-73
2022/04/20 02:42:30;;;;;;;0.32;0.25;;;23.60;99.90;;;;;;5013225;28;20241;-70
2022/04/20 02:45:01;;;;;;;0.55;0.38;;;23.60;99.90;;;;;;5011801;28;20570;-71
2022/04/20 02:47:32;;;;;;;0.20;0.20;;;23.60;99.90;;;;;;5006859;28;20195;-69
2022/04/20 02:50:02;;;;;;;1.13;0.30;;;23.50;99.90;;;;;;5007624;28;20745;-72
2022/04/20 02:52:35;;;;;;;0.20;0.20;;;23.50;99.90;;;;;;5009642;28;20202;-70
2022/04/20 02:55:06;;;;;;;0.05;0.05;;;23.50;99.90;;;;;;5007664;28;20206;-71
2022/04/20 02:57:36;;;;;;;0.17;0.17;;;23.40;99.90;;;;;;5007376;28;20269;-71
2022/04/20 03:00:08;;;;;;;0.10;0.10;;;23.40;99.90;;;;;;5007741;28;20217;-75
2022/04/20 03:02:38;;;;;;;0.63;0.20;;;23.40;99.90;;;;;;5007472;28;20215;-71
2022/04/20 03:05:10;;;;;;;0.15;0.15;;;23.50;99.90;;;;;;5009928;28;20194;-73
2022/04/20 03:07:42;;;;;;;0.17;0.17;;;23.40;99.90;;;;;;5014474;28;20187;-73
2022/04/20 03:10:13;;;;;;;0.20;0.20;;;23.20;99.90;;;;;;5009464;28;20199;-70
2022/04/20 03:12:44;;;;;;;0.10;0.10;;;23.30;99.90;;;;;;5011085;28;20549;-70
2022/04/20 03:15:14;;;;;;;0.17;0.10;;;23.40;99.90;;;;;;4996563;28;20198;-70
2022/04/20 03:17:45;;;;;;;0.20;0.20;;;23.50;99.90;;;;;;5012048;28;20195;-70
2022/04/20 03:20:16;;;;;;;0.90;0.10;;;23.60;99.90;;;;;;5013325;28;20202;-70
2022/04/20 03:22:49;;;;;;;0.20;0.10;;;23.70;99.90;;;;;;5009000;28;20211;-70
2022/04/20 03:25:19;;;;;;;1.65;0.17;;;23.70;99.90;;;;;;5009234;28;20199;-70
2022/04/20 03:27:50;;;;;;;0.10;0.10;;;23.70;99.90;;;;;;5013458;28;20195;-72
2022/04/20 03:30:21;;;;;;;0.47;0.10;;;23.70;99.90;;;;;;5009326;28;20662;-70
2022/04/20 03:32:51;;;;;;;0.10;0.10;;;23.70;99.90;;;;;;5012761;28;20206;-70
2022/04/20 03:35:23;;;;;;;0.10;0.10;;;23.70;99.90;;;;;;5011179;28;20202;-71
2022/04/20 03:37:55;;;;;;;1.23;0.40;;;23.50;99.90;;;;;;5009048;28;20614;-72
2022/04/20 03:40:26;;;;;;;0.57;0.38;;;23.30;99.90;;;;;;5009291;28;20195;-70
2022/04/20 03:42:57;;;;;;;0.20;0.20;;;23.20;99.90;;;;;;5002407;28;20215;-73
2022/04/20 03:45:27;;;;;;;0.20;0.10;;;23.20;99.90;;;;;;5005260;28;20204;-70
2022/04/20 03:47:58;;;;;;;0.98;0.30;;;23.30;99.90;;;;;;5011896;28;20195;-70
2022/04/20 03:50:29;;;;;;;0.82;0.30;;;23.20;99.90;;;;;;5007967;28;20238;-70
2022/04/20 03:53:02;;;;;;;0.70;0.28;;;23.20;99.90;;;;;;5008929;28;20666;-70
2022/04/20 03:55:32;;;;;;;0.40;0.30;;;23.20;99.90;;;;;;5009956;28;20203;-70
2022/04/20 03:58:03;;;;;;;0.20;0.10;;;23.30;99.90;;;;;;5013302;28;20191;-70
2022/04/20 04:00:34;;;;;;;0.35;0.17;;;23.40;99.90;;;;;;5011011;28;20257;-70
2022/04/20 04:03:04;;;;;;;0.35;0.20;;;23.50;99.90;;;;;;5005851;28;20223;-71
2022/04/20 04:05:35;;;;;;;1.52;0.20;;;23.70;99.90;;;;;;5002179;28;20202;-70
2022/04/20 04:08:08;;;;;;;0.40;0.10;;;23.70;99.90;;;;;;5011391;28;20195;-70
2022/04/20 04:10:39;;;;;;;0.35;0.10;;;23.70;99.90;;;;;;5012980;28;20195;-70
2022/04/20 04:13:10;;;;;;;1.08;0.10;;;23.70;99.90;;;;;;4995486;28;20588;-71
2022/04/20 04:15:41;;;;;;;0.10;0.10;;;23.70;99.90;;;;;;5012863;28;20191;-70
2022/04/20 04:18:12;;;;;;;0.20;0.20;;;23.70;99.90;;;;;;5012217;28;20187;-71
2022/04/20 04:20:43;;;;;;;0.63;0.20;;;23.70;99.90;;;;;;5009783;28;20290;-70
2022/04/20 04:23:15;;;;;;;0.10;0.10;;;23.80;99.90;;;;;;5011784;28;20211;-70
2022/04/20 04:25:46;;;;;;;0.30;0.30;;;23.80;99.90;;;;;;5011992;28;20202;-70
2022/04/20 04:28:18;;;;;;;0.45;0.20;;;23.90;99.90;;;;;;5012237;28;20249;-70
2022/04/20 04:30:48;;;;;;;0.17;0.10;;;23.80;99.90;;;;;;5012865;28;20278;-70
2022/04/20 04:33:19;;;;;;;0.50;0.20;;;23.80;99.90;;;;;;5010957;28;20202;-74
2022/04/20 04:35:49;;;;;;;0.20;0.20;;;23.80;99.90;;;;;;5012788;28;20257;-70
2022/04/20 04:38:22;;;;;;;0.30;0.20;;;23.70;99.90;;;;;;5007447;28;20206;-71
2022/04/20 04:40:53;;;;;;;0.30;0.10;;;23.60;99.90;;;;;;5012565;28;20199;-70
2022/04/20 04:43:23;;;;;;;0.50;0.50;;;23.60;99.90;;;;;;5014466;28;20223;-69
2022/04/20 04:48:42;;;;;;;0.70;0.30;;;23.60;99.90;;;;;;5006448;28;20206;-79
2022/04/20 04:51:13;;;;;;;0.10;0.10;;;23.60;99.90;;;;;;5006343;28;20849;-69
2022/04/20 04:53:46;;;;;;;0.20;0.20;;;23.60;99.90;;;;;;5015133;28;20207;-70
2022/04/20 04:56:16;;;;;;;2.80;0.50;;;23.60;99.90;;;;;;5016080;28;20611;-71
2022/04/20 04:58:47;;;;;;;0.45;0.28;;;23.60;99.90;;;;;;5014524;28;20198;-70
2022/04/20 05:01:17;;;;;;;1.65;0.10;;;23.60;99.90;;;;;;5015282;28;20269;-76
2022/04/20 05:03:48;;;;;;;1.65;0.40;;;23.60;99.90;;;;;;5003840;28;20219;-71
2022/04/20 05:06:19;;;;;;;0.10;0.10;;;23.60;99.90;;;;;;5015177;28;20235;-69
2022/04/20 05:08:51;;;;;;;0.30;0.30;;;23.60;99.90;;;;;;5015183;28;20206;-70
2022/04/20 05:11:22;;;;;;;0.30;0.30;;;23.60;99.90;;;;;;5015691;28;20187;-70
2022/04/20 05:13:53;;;;;;;0.20;0.20;;;23.70;99.90;;;;;;5009519;28;20210;-70
2022/04/20 05:16:24;;;;;;;0.45;0.20;;;23.70;99.90;;;;;;5014865;28;20661;-72
2022/04/20 05:18:54;;;;;;;0.30;0.30;;;23.60;99.90;;;;;;5013845;28;20357;-70
2022/04/20 05:21:25;;;;;;;0.25;0.10;;;23.60;99.90;;;;;;5015655;28;20278;-70
2022/04/20 05:23:58;;;;;;;3.13;0.28;;;23.60;99.90;;;;;;5013487;28;20704;-71
2022/04/20 05:26:29;;;;;;;0.10;0.10;;;23.60;99.90;;;;;;5015559;28;20191;-71
2022/04/20 05:28:59;;;;;;;0.20;0.20;;;23.60;99.90;;;;;;5013909;28;20234;-70
2022/04/20 05:31:30;;;;;;;0.47;0.20;;;23.60;99.90;;;;;;5015424;28;20195;-70
2022/04/20 05:34:00;;;;;;;1.35;0.20;;;23.70;99.90;;;;;;5013441;28;20202;-74
2022/04/20 05:41:39;;;;;;;1.85;1.42;;;23.70;99.90;;;;;;4997415;28;20206;-73
2022/04/20 05:42:11;;;;;;;12.68;8.30;;;23.60;99.90;;;;;;4996008;28;20617;-72
2022/04/20 05:44:42;;;;;;;3.40;2.47;;;23.60;99.90;;;;;;5014019;28;20218;-72
2022/04/20 05:47:12;;;;;;;3.75;2.45;;;23.60;99.90;;;;;;5011025;28;20199;-72
2022/04/20 05:49:43;;;;;;;1.13;0.70;;;23.60;99.90;;;;;;5013935;28;20218;-74
2022/04/20 05:52:14;;;;;;;0.57;0.45;;;23.60;99.90;;;;;;5010227;28;20195;-72
2022/04/20 05:54:46;;;;;;;0.85;0.50;;;23.60;99.90;;;;;;5015131;28;20245;-72
2022/04/20 05:57:17;;;;;;;1.45;0.50;;;23.60;99.90;;;;;;5014283;28;20203;-72
2022/04/20 05:59:47;;;;;;;0.32;0.30;;;23.60;99.90;;;;;;5013494;28;20339;-79
2022/04/20 06:02:18;;;;;;;0.25;0.20;;;23.50;99.90;;;;;;5014089;28;20201;-73
2022/04/20 06:04:48;;;;;;;1.30;0.50;;;23.50;99.90;;;;;;5008898;28;20273;-73
2022/04/20 06:07:19;;;;;;;0.63;0.30;;;23.50;99.90;;;;;;5011758;28;20224;-73
2022/04/20 06:09:52;;;;;;;0.57;0.43;;;23.60;99.90;;;;;;5013063;28;20195;-77
2022/04/20 06:12:22;;;;;;;1.20;0.20;;;23.50;99.90;;;;;;5014734;28;20602;-71
2022/04/20 06:14:53;;;;;;;0.20;0.20;;;23.50;99.90;;;;;;5013141;28;20198;-78
2022/04/20 06:17:24;;;;;;;0.20;0.20;;;23.40;99.90;;;;;;5013144;28;20209;-74
2022/04/20 06:19:55;;;;;;;0.30;0.30;;;23.40;99.90;;;;;;5013914;28;20214;-75
2022/04/20 06:22:26;;;;;;;0.20;0.20;;;23.40;99.90;;;;;;5013863;28;20226;-79
2022/04/20 06:24:59;;;;;;;0.10;0.10;;;23.40;99.90;;;;;;5014471;28;20230;-73
2022/04/20 06:27:32;;;;;;;0.17;0.17;;;23.40;99.90;;;;;;5013483;28;20289;-81
2022/04/20 06:30:03;;;;;;;0.55;0.30;;;23.30;99.90;;;;;;5012619;28;20540;-72
2022/04/20 06:32:33;;;;;;;0.50;0.20;;;23.30;99.90;;;;;;5013479;28;20206;-73
2022/04/20 06:35:04;;;;;;;0.52;0.20;;;23.20;99.90;;;;;;5012593;28;20199;-79
2022/04/20 06:37:35;;;;;;;0.57;0.30;;;23.10;99.90;;;;;;5012472;28;20206;-79
2022/04/20 06:40:08;;;;;;;0.90;0.60;;;23.00;99.90;;;;;;5011771;28;20202;-76
2022/04/20 06:42:39;;;;;;;1.92;0.50;;;23.00;99.90;;;;;;5011285;28;20202;-75
2022/04/20 06:45:11;;;;;;;1.40;0.32;;;23.00;99.90;;;;;;4999313;28;20228;-78
2022/04/20 06:47:41;;;;;;;0.20;0.20;;;23.00;99.90;;;;;;5007676;28;20198;-70
2022/04/20 06:50:12;;;;;;;1.42;0.40;;;23.00;99.90;;;;;;5011816;28;20234;-78
2022/04/20 06:58:35;;;;;;;0.30;0.30;;;23.00;99.90;;;;;;4952343;29;20200;-75
2022/04/20 07:01:07;;;;;;;0.35;0.30;;;22.90;99.90;;;;;;4981376;28;20253;-77
2022/04/20 07:03:39;;;;;;;0.20;0.20;;;22.90;99.90;;;;;;5010228;28;20202;-77
2022/04/20 07:06:09;;;;;;;0.20;0.20;;;22.80;99.90;;;;;;5011484;28;20210;-78
2022/04/20 07:08:40;;;;;;;0.38;0.30;;;22.70;99.90;;;;;;5013315;28;20651;-82
2022/04/20 07:11:13;;;;;;;0.98;0.38;;;22.70;99.90;;;;;;5013167;28;20226;-76
2022/04/20 07:13:43;;;;;;;1.65;0.50;;;22.60;99.90;;;;;;5011356;28;20570;-71
2022/04/20 07:16:14;;;;;;;0.40;0.30;;;22.60;99.90;;;;;;5011569;28;20203;-88
2022/04/20 07:18:44;;;;;;;0.90;0.40;;;22.50;99.90;;;;;;5008425;28;20198;-70
2022/04/20 07:21:15;;;;;;;0.55;0.40;;;22.40;99.90;;;;;;5004381;28;20203;-79
2022/04/20 07:23:46;;;;;;;1.63;0.57;;;22.40;99.90;;;;;;5011455;28;20253;-80
2022/04/20 07:26:18;;;;;;;0.68;0.55;;;22.30;99.90;;;;;;5008861;28;20199;-83
2022/04/20 07:28:49;;;;;;;1.95;0.70;;;22.20;99.90;;;;;;5009459;28;20210;-81
2022/04/20 07:31:20;;;;;;;0.95;0.63;;;22.10;99.90;;;;;;5012591;28;20199;-79
2022/04/20 07:33:50;;;;;;;2.30;0.57;;;22.00;99.90;;;;;;5009687;28;20669;-75
2022/04/20 07:36:21;;;;;;;2.05;0.65;;;21.90;99.90;;;;;;5010516;28;20195;-73
2022/04/20 07:38:52;;;;;;;2.15;0.60;;;21.80;99.90;;;;;;5008531;28;20198;-81
2022/04/20 07:41:24;;;;;;;1.75;0.70;;;21.60;99.90;;;;;;5010330;28;20195;-79
2022/04/20 07:43:55;;;;;;;0.50;0.50;;;21.50;99.90;;;;;;5008976;28;20205;-73
2022/04/20 07:46:26;;;;;;;0.82;0.70;;;21.30;99.90;;;;;;5009217;28;20194;-74
2022/04/20 07:48:56;;;;;;;1.63;0.70;;;21.20;99.90;;;;;;5008110;28;20234;-75
2022/04/20 07:51:27;;;;;;;1.60;1.00;;;21.10;99.90;;;;;;5024274;22;20770;-83
2022/04/20 07:53:57;;;;;;;3.35;1.10;;;21.10;99.90;;;;;;5004763;28;20207;-84
2022/04/20 07:56:30;;;;;;;2.88;1.20;;;21.10;99.90;;;;;;5012343;28;20198;-85
2022/04/20 07:59:00;;;;;;;3.25;1.50;;;21.10;99.90;;;;;;5007187;28;20264;-85
2022/04/20 08:01:31;;;;;;;2.72;1.80;;;21.10;99.90;;;;;;5013418;28;20253;-81
2022/04/20 08:04:02;;;;;;;3.40;1.90;;;21.10;99.90;;;;;;5008344;28;20277;-85
2022/04/20 08:06:33;;;;;;;2.60;1.70;;;21.00;99.90;;;;;;5005866;28;20257;-85
2022/04/20 08:09:03;;;;;;;2.83;1.70;;;21.00;99.90;;;;;;5005798;28;20199;-79
2022/04/20 08:11:36;;;;;;;2.10;1.60;;;20.90;99.90;;;;;;5010598;28;20199;-81
2022/04/20 08:14:13;;;;;;;2.45;1.65;;;20.80;99.90;;;;;;5008859;28;20245;-83
2022/04/20 08:16:45;;;;;;;4.38;1.88;;;20.70;99.90;;;;;;5010062;28;20206;-81
2022/04/20 08:19:15;;;;;;;3.15;1.77;;;20.60;99.90;;;;;;5014001;28;20234;-78
2022/04/20 08:21:46;;;;;;;5.75;4.15;;;20.50;99.90;;;;;;4997524;28;20200;-80
2022/04/20 08:24:17;;;;;;;26.80;17.65;;;20.40;99.90;;;;;;5012187;28;20604;-81
2022/04/20 08:26:49;;;;;;;42.53;28.00;;;20.30;99.90;;;;;;5012612;28;20265;-83
2022/04/20 08:29:20;;;;;;;17.88;12.13;;;20.20;99.90;;;;;;5007343;28;20196;-77
2022/04/20 08:31:50;;;;;;;11.63;6.28;;;20.00;99.90;;;;;;5008793;28;20692;-82
2022/04/20 08:34:21;;;;;;;9.68;6.00;;;19.90;99.90;;;;;;5015221;28;20244;-80
2022/04/20 08:36:52;;;;;;;9.32;4.53;;;19.80;99.90;;;;;;5011594;28;20359;-80
2022/04/20 08:39:22;;;;;;;7.85;3.72;;;19.70;99.90;;;;;;5015326;28;20209;-81
2022/04/20 08:41:55;;;;;;;4.05;2.58;;;19.60;99.90;;;;;;5008229;28;20214;-80
2022/04/20 08:44:29;;;;;;;3.97;2.53;;;19.50;99.90;;;;;;5005971;28;20211;-81
2022/04/20 08:47:04;;;;;;;3.80;2.53;;;19.50;99.90;;;;;;5008633;28;20194;-80
2022/04/20 08:49:36;;;;;;;5.60;2.53;;;19.50;99.90;;;;;;5005201;28;20196;-81
2022/04/20 08:54:53;;;;;;;3.45;2.30;;;19.40;99.90;;;;;;4995499;28;20290;-80
2022/04/20 08:57:27;;;;;;;3.25;1.52;;;19.40;99.90;;;;;;4983853;28;20204;-81
2022/04/20 09:00:00;;;;;;;3.47;1.88;;;19.30;99.90;;;;;;4988342;28;20200;-80
2022/04/20 09:02:31;;;;;;;4.00;1.60;;;19.30;99.90;;;;;;4992955;28;20246;-81
2022/04/20 09:05:03;;;;;;;2.20;1.50;;;19.30;99.90;;;;;;4989104;28;20721;-81
2022/04/20 09:07:33;;;;;;;2.67;1.50;;;19.30;99.90;;;;;;4990359;28;20609;-81
2022/04/20 09:10:04;;;;;;;2.33;1.48;;;19.20;99.90;;;;;;4992390;28;20199;-81
2022/04/20 09:12:42;;;;;;;2.05;1.40;;;19.20;99.90;;;;;;4984593;28;20600;-82
2022/04/20 09:15:14;;;;;;;2.17;1.33;;;19.10;99.90;;;;;;4985562;28;20232;-81
2022/04/20 09:17:46;;;;;;;2.28;1.55;;;19.10;99.90;;;;;;4990467;28;20198;-82
2022/04/20 09:20:21;;;;;;;3.10;1.70;;;19.10;99.90;;;;;;4983363;28;20245;-83
2022/04/20 09:23:05;;;;;;;3.53;1.55;;;19.10;99.90;;;;;;4991858;28;20737;-82
2022/04/20 09:25:36;;;;;;;3.13;1.50;;;19.20;99.90;;;;;;4988688;28;20239;-80
2022/04/20 09:28:10;;;;;;;2.72;1.40;;;19.30;99.90;;;;;;4992513;28;20199;-82
2022/04/20 09:30:42;;;;;;;2.53;1.35;;;19.50;99.90;;;;;;4995213;28;20234;-82
2022/04/20 09:33:13;;;;;;;1.70;1.30;;;19.50;99.90;;;;;;4987560;28;21296;-81
2022/04/20 09:35:48;;;;;;;2.38;1.33;;;19.50;99.90;;;;;;4981517;28;20232;-82
2022/04/20 09:38:21;;;;;;;1.50;1.30;;;19.50;99.90;;;;;;4984909;28;20199;-81
2022/04/20 09:40:52;;;;;;;2.40;1.45;;;19.50;99.90;;;;;;4991030;28;20203;-82
2022/04/20 09:43:25;;;;;;;2.28;1.50;;;19.60;99.90;;;;;;4985881;28;20728;-82
2022/04/20 09:48:50;;;;;;;2.40;1.27;;;19.60;99.90;;;;;;4995192;28;20277;-83
2022/04/20 09:49:10;;;;;;;2.78;1.30;;;19.50;99.90;;;;;;4995570;28;20207;-80
2022/04/20 09:51:42;;;;;;;3.28;1.20;;;19.50;99.90;;;;;;4990482;28;20314;-82
2022/04/20 09:54:28;;;;;;;3.55;1.20;;;19.50;99.90;;;;;;4992322;28;20200;-79
2022/04/20 09:57:12;;;;;;;3.17;1.20;;;19.60;99.90;;;;;;4989740;28;20199;-69
2022/04/20 09:59:58;;;;;;;1.60;1.20;;;19.60;99.90;;;;;;4989911;28;20195;-69
2022/04/20 10:02:32;;;;;;;1.98;1.00;;;19.50;99.90;;;;;;4994787;28;20560;-70
2022/04/20 10:05:03;;;;;;;2.13;1.10;;;19.50;99.90;;;;;;4989113;28;20227;-70
2022/04/20 10:07:34;;;;;;;1.08;0.88;;;19.40;99.90;;;;;;4992763;28;20204;-71
2022/04/20 10:10:05;;;;;;;1.48;0.80;;;19.40;99.90;;;;;;4981324;28;20196;-69
2022/04/20 10:12:38;;;;;;;0.80;0.70;;;19.40;99.90;;;;;;4991009;28;20198;-70
2022/04/20 10:17:59;;;;;;;1.20;0.73;;;19.30;99.90;;;;;;4990368;28;20198;-74
2022/04/20 10:20:34;;;;;;;1.75;0.60;;;19.30;99.90;;;;;;4993213;28;20204;-71
2022/04/20 10:23:07;;;;;;;1.25;0.63;;;19.20;99.90;;;;;;4990019;28;20669;-69
2022/04/20 10:25:38;;;;;;;1.25;0.60;;;19.20;99.90;;;;;;4994123;28;20215;-69
2022/04/20 10:28:19;;;;;;;1.77;0.77;;;19.20;99.90;;;;;;4986614;28;20283;-71
2022/04/20 10:31:08;;;;;;;1.13;0.60;;;19.20;99.90;;;;;;4991499;28;20579;-72
2022/04/20 10:33:42;;;;;;;2.60;0.85;;;19.20;99.90;;;;;;4988526;28;20199;-69
2022/04/20 10:36:16;;;;;;;2.03;1.13;;;19.10;99.90;;;;;;4990237;28;20587;-69
2022/04/20 10:38:48;;;;;;;1.52;1.00;;;19.10;99.90;;;;;;4992974;28;20191;-69
2022/04/20 10:41:19;;;;;;;1.70;1.00;;;19.00;99.90;;;;;;4988441;28;20200;-69
2022/04/20 10:44:05;;;;;;;1.80;1.02;;;19.00;99.90;;;;;;4985037;28;20199;-70
2022/04/20 10:46:57;;;;;;;2.25;1.10;;;18.90;99.90;;;;;;4992254;28;20220;-72
2022/04/20 10:49:36;;;;;;;1.35;1.08;;;18.90;99.90;;;;;;4989666;28;20196;-69
2022/04/20 10:52:26;;;;;;;1.70;1.00;;;18.60;99.90;;;;;;4993660;28;20235;-69
2022/04/20 10:54:57;;;;;;;1.73;0.73;;;18.50;99.90;;;;;;4991292;28;20191;-70
2022/04/20 10:57:37;;;;;;;1.27;0.80;;;18.40;99.90;;;;;;4984233;28;20188;-70
2022/04/20 11:00:37;;;;;;;1.55;1.00;;;18.30;99.90;;;;;;4990067;28;20204;-69
2022/04/20 11:03:12;;;;;;;1.05;0.80;;;18.20;99.90;;;;;;4944777;28;20207;-69
2022/04/20 11:05:55;;;;;;;1.95;0.88;;;18.10;99.90;;;;;;4982232;28;20666;-69
2022/04/20 11:08:26;;;;;;;1.58;0.80;;;18.00;99.90;;;;;;4994106;28;20198;-70
2022/04/20 11:19:58;;;;;;;1.00;0.70;;;17.90;99.90;;;;;;4992689;28;20218;-69
2022/04/20 11:22:29;;;;;;;0.70;0.60;;;17.90;99.90;;;;;;4993485;28;20200;-70
2022/04/20 11:25:06;;;;;;;1.83;0.60;;;17.90;99.90;;;;;;4993979;28;20766;-70
2022/04/20 11:27:37;;;;;;;1.25;0.82;;;17.90;99.90;;;;;;4991536;28;20290;-71
2022/04/20 11:30:09;;;;;;;0.95;0.70;;;18.00;99.90;;;;;;4992351;28;20612;-72
2022/04/20 11:32:40;;;;;;;1.88;0.68;;;18.00;99.90;;;;;;4984863;28;20254;-69
2022/04/20 11:35:15;;;;;;;1.67;0.50;;;18.00;99.90;;;;;;4991529;28;20203;-69
2022/04/20 11:37:58;;;;;;;1.30;0.80;;;18.00;99.90;;;;;;4994045;28;20638;-72
2022/04/20 11:40:29;;;;;;;1.08;0.57;;;18.00;99.90;;;;;;4992095;28;20250;-69
2022/04/20 11:43:10;;;;;;;1.30;0.63;;;18.00;99.90;;;;;;4991519;28;20192;-70
2022/04/20 11:45:41;;;;;;;2.40;0.55;;;17.90;99.90;;;;;;4992398;28;20690;-70
2022/04/20 11:48:17;;;;;;;1.08;0.60;;;17.90;99.90;;;;;;4993906;28;20192;-70
2022/04/20 11:50:57;;;;;;;0.85;0.50;;;17.90;99.90;;;;;;4993916;28;20285;-69
2022/04/20 11:53:35;;;;;;;0.60;0.40;;;17.90;99.90;;;;;;4986462;28;20204;-78
2022/04/20 11:56:07;;;;;;;0.57;0.50;;;17.90;99.90;;;;;;4995380;28;20200;-75
2022/04/20 11:58:39;;;;;;;0.93;0.40;;;17.90;99.90;;;;;;4995577;28;20222;-73
2022/04/20 12:01:11;;;;;;;0.60;0.40;;;17.90;99.90;;;;;;4996197;28;20199;-80
2022/04/20 12:03:43;;;;;;;0.55;0.40;;;17.80;99.90;;;;;;4994188;28;20200;-81
2022/04/20 12:06:16;;;;;;;1.17;0.50;;;17.80;99.90;;;;;;4987771;28;20223;-81
2022/04/20 12:08:49;;;;;;;0.50;0.50;;;17.80;99.90;;;;;;4996192;28;20199;-80
2022/04/20 12:11:20;;;;;;;0.63;0.63;;;17.70;99.90;;;;;;4990111;28;20200;-81
2022/04/20 12:13:59;;;;;;;3.53;0.70;;;17.70;99.90;;;;;;4996332;28;20195;-70
2022/04/20 12:16:35;;;;;;;1.42;0.73;;;17.60;99.90;;;;;;4995956;28;20199;-73
2022/04/20 12:19:06;;;;;;;1.10;0.90;;;17.60;99.90;;;;;;4988517;28;20250;-69
2022/04/20 12:21:43;;;;;;;1.40;0.75;;;17.60;99.90;;;;;;4991777;28;20195;-74
2022/04/20 12:24:21;;;;;;;1.42;0.80;;;17.50;99.90;;;;;;4996665;28;20195;-69
2022/04/20 12:26:52;;;;;;;1.13;0.70;;;17.50;99.90;;;;;;4995213;28;20226;-69
2022/04/20 12:29:24;;;;;;;1.48;0.65;;;17.40;99.90;;;;;;4996908;28;20242;-70
2022/04/20 12:31:56;;;;;;;1.58;0.70;;;17.40;99.90;;;;;;4991745;28;20204;-70
2022/04/20 12:34:28;;;;;;;1.98;0.60;;;17.30;99.90;;;;;;4990530;28;20211;-69
2022/04/20 12:37:06;;;;;;;2.08;0.63;;;17.30;99.90;;;;;;4993839;28;20555;-69
2022/04/20 12:39:38;;;;;;;0.73;0.60;;;17.20;99.90;;;;;;4986150;28;20196;-72
2022/04/20 12:42:10;;;;;;;0.57;0.52;;;17.20;99.90;;;;;;4994178;28;20666;-69
2022/04/20 12:44:46;;;;;;;2.40;0.60;;;17.10;99.90;;;;;;4991646;28;20253;-69
2022/04/20 12:47:35;;;;;;;1.10;0.60;;;17.00;99.90;;;;;;4994970;28;20212;-69
2022/04/20 12:50:20;;;;;;;1.58;0.75;;;17.00;99.90;;;;;;4987934;28;20326;-71
2022/04/20 12:53:01;;;;;;;0.90;0.60;;;17.00;99.90;;;;;;4993525;28;20206;-82
2022/04/20 12:55:40;;;;;;;1.85;0.70;;;16.90;99.90;;;;;;4993009;28;20222;-82
2022/04/20 13:03:52;;;;;;;1.73;0.70;;;16.90;99.90;;;;;;4992749;28;20206;-69
2022/04/20 13:06:23;;;;;;;0.60;0.50;;;16.80;99.90;;;;;;4994555;28;20219;-81
2022/04/20 13:08:57;;;;;;;1.50;0.80;;;16.80;99.90;;;;;;4995064;28;20192;-82
2022/04/20 13:11:27;;;;;;;0.98;0.60;;;16.70;99.90;;;;;;4991498;28;20643;-76
2022/04/20 13:14:00;;;;;;;1.20;0.73;;;16.70;99.90;;;;;;4994421;28;20207;-82
2022/04/20 13:16:31;;;;;;;0.65;0.65;;;16.60;99.90;;;;;;4993320;28;20203;-79
2022/04/20 13:19:01;;;;;;;1.88;0.80;;;16.50;99.90;;;;;;4984565;28;20201;-81
2022/04/20 13:21:32;;;;;;;1.45;0.73;;;16.40;99.90;;;;;;4994948;28;20245;-81
2022/04/20 13:24:06;;;;;;;1.10;0.70;;;16.40;99.90;;;;;;4993531;28;20238;-77
2022/04/20 13:29:39;;;;;;;2.20;0.85;;;16.30;99.90;;;;;;4929530;29;20569;-82
2022/04/20 13:32:09;;;;;;;2.33;0.82;;;16.30;99.90;;;;;;4931996;29;20197;-81
2022/04/20 13:34:40;;;;;;;1.30;0.80;;;16.30;99.90;;;;;;4959973;28;20204;-81
2022/04/20 13:37:13;;;;;;;1.25;0.70;;;16.30;99.90;;;;;;4993098;28;20207;-82
2022/04/20 13:39:45;;;;;;;0.80;0.80;;;16.30;99.90;;;;;;4992516;28;20195;-80
2022/04/20 13:42:16;;;;;;;2.28;0.80;;;16.30;99.90;;;;;;4994028;28;20204;-81
2022/04/20 13:44:46;;;;;;;2.13;1.00;;;16.20;99.90;;;;;;4993306;28;20705;-82
2022/04/20 13:47:17;;;;;;;1.10;0.90;;;16.30;99.90;;;;;;4992990;28;20216;-80
2022/04/20 13:49:48;;;;;;;1.60;0.93;;;16.20;99.90;;;;;;4994649;28;20716;-79
2022/04/20 13:52:18;;;;;;;2.58;1.05;;;16.20;99.90;;;;;;5039820;23;20731;-73